»·PEaware :: N8055W L70-L35

N8055W :: L70-L35

FLIGHT INFORMATION

Flight Status: Arrived
Operator: Privately registered:
United States
More flights under this callsign
Pilot: Alex A. (3534)
Aircraft: PIPER PA-24 COMMANCHE
(PA24)
More flights by this aircraft type
Origin: L70 Agua Dulce
United States
Destination: L35 Big Bear City
United States
More flights between these airports :: More routes between these airports
Route: VFR
File this flight plan on PilotEdge
Remarks: plz speek slowly.
Altitude:
(Current/Filed)
6,500ft
Speed:
(Current/Filed)
160kts
Departed: 11-Feb-18 07:17 AM
Arrived: 11-Feb-18 08:05 AM
Distance/Time
Traveled:
74nm/0:48
Distance/Time
To Go:
Arrived

Flight Plot

Page will automatically refresh every two minutes.

Flight plan parsing failed; only flown route is shown


Map Options




Map Legend


Flown Route
Filed Route
Departure Airport
Arrival Airport
Navaid (VOR, NDB)
Fix

Horizontal Profiles

Position Reports

Time Latitude Longitude Heading Altitude Ground
Speed
11-Feb-18 07:06 34.501336 -118.317773 143 2605ft 0kts
11-Feb-18 07:07 34.501336 -118.317773 143 2605ft 0kts
11-Feb-18 07:08 34.501336 -118.317773 143 2605ft 0kts
11-Feb-18 07:09 34.501336 -118.317773 143 2605ft 0kts
11-Feb-18 07:10 34.501335 -118.317772 143 2605ft 0kts
11-Feb-18 07:11 34.501334 -118.317771 143 2605ft 0kts
11-Feb-18 07:12 34.501332 -118.317770 143 2605ft 0kts
11-Feb-18 07:13 34.501331 -118.317768 143 2605ft 0kts
11-Feb-18 07:14 34.501329 -118.317767 143 2605ft 0kts
11-Feb-18 07:15 34.501327 -118.317766 143 2605ft 0kts
11-Feb-18 07:16 34.501326 -118.317764 143 2605ft 0kts
11-Feb-18 07:17 34.501325 -118.317763 143 2605ft 0kts
11-Feb-18 07:18 34.501324 -118.317762 143 2605ft 0kts
11-Feb-18 07:19 34.501709 -118.316917 52 2605ft 10kts
11-Feb-18 07:20 34.503541 -118.313954 53 2605ft 10kts
11-Feb-18 07:21 34.505320 -118.311095 53 2605ft 10kts
11-Feb-18 07:22 34.507098 -118.308262 52 2605ft 10kts
11-Feb-18 07:23 34.507411 -118.306918 215 2605ft 9kts
11-Feb-18 07:24 34.496432 -118.333815 296 3291ft 126kts
11-Feb-18 07:25 34.519544 -118.336642 76 4337ft 120kts
11-Feb-18 07:26 34.523187 -118.292253 66 4937ft 138kts
11-Feb-18 07:27 34.545395 -118.252190 54 5466ft 148kts
11-Feb-18 07:28 34.564426 -118.211455 67 6051ft 139kts
11-Feb-18 07:29 34.585031 -118.173438 32 6185ft 151kts
11-Feb-18 07:30 34.616022 -118.140843 45 6298ft 150kts
11-Feb-18 07:30 34.627564 -118.102642 88 6311ft 150kts
11-Feb-18 07:32 34.632885 -118.044104 94 6298ft 148kts
11-Feb-18 07:33 34.627980 -117.994983 91 6292ft 146kts
11-Feb-18 07:33 34.625756 -117.953900 92 6291ft 146kts
11-Feb-18 07:35 34.622501 -117.896199 88 6288ft 147kts
11-Feb-18 07:35 34.620184 -117.854856 89 6286ft 147kts
11-Feb-18 07:36 34.617449 -117.805026 92 6278ft 148kts
11-Feb-18 07:37 34.614775 -117.755395 89 6283ft 147kts
11-Feb-18 07:38 34.612510 -117.705498 90 6285ft 147kts
11-Feb-18 07:39 34.609192 -117.655930 90 6279ft 148kts
11-Feb-18 07:40 34.606675 -117.606204 88 6283ft 147kts
11-Feb-18 07:41 34.603585 -117.556261 89 6290ft 148kts
11-Feb-18 07:42 34.601006 -117.506375 90 6297ft 149kts
11-Feb-18 07:43 34.597736 -117.456355 88 6299ft 148kts
11-Feb-18 07:44 34.594760 -117.406140 91 6304ft 149kts
11-Feb-18 07:45 34.583167 -117.358809 130 6303ft 157kts
11-Feb-18 07:46 34.552441 -117.320924 126 6298ft 157kts
11-Feb-18 07:47 34.526123 -117.279040 124 6292ft 156kts
11-Feb-18 07:49 34.500130 -117.236974 120 6284ft 156kts
11-Feb-18 07:50 34.474179 -117.194427 120 6283ft 156kts
11-Feb-18 07:51 34.447768 -117.152296 120 6272ft 156kts
11-Feb-18 07:52 34.418075 -117.116311 143 6569ft 154kts
11-Feb-18 07:53 34.379911 -117.094403 146 6835ft 149kts
11-Feb-18 07:54 34.346569 -117.066859 138 7293ft 143kts
11-Feb-18 07:55 34.313027 -117.040010 149 7751ft 144kts
11-Feb-18 07:56 34.286741 -117.003608 114 8039ft 151kts
11-Feb-18 07:57 34.269813 -116.958245 127 8452ft 146kts
11-Feb-18 07:58 34.258104 -116.915038 75 8147ft 140kts
11-Feb-18 07:59 34.270530 -116.869666 70 7846ft 144kts
11-Feb-18 08:00 34.276301 -116.821847 73 7803ft 145kts
11-Feb-18 08:01 34.265296 -116.807109 250 7601ft 139kts
11-Feb-18 08:02 34.263813 -116.844130 269 6884ft 91kts
11-Feb-18 08:03 34.261823 -116.874549 262 7209ft 120kts
11-Feb-18 08:04 34.244180 -116.910238 296 7654ft 139kts
11-Feb-18 08:05 34.263748 -116.891335 94 7251ft 106kts
11-Feb-18 08:06 34.263817 -116.863002 86 6760ft 73kts
11-Feb-18 08:07 34.261765 -116.837700 144 7383ft 99kts
11-Feb-18 08:08 34.243707 -116.867868 265 7689ft 156kts
11-Feb-18 08:09 34.248862 -116.914772 326 7383ft 130kts
11-Feb-18 08:10 34.263733 -116.887780 87 7110ft 106kts
11-Feb-18 08:11 34.263778 -116.857038 85 6755ft 68kts
11-Feb-18 08:12 34.263886 -116.849902 87 6755ft 20kts
11-Feb-18 08:13 34.263736 -116.846207 197 6755ft 6kts
11-Feb-18 08:14 34.263281 -116.846685 272 6755ft 8kts
11-Feb-18 08:15 34.263225 -116.852214 268 6755ft 7kts
11-Feb-18 08:16 34.262285 -116.853434 185 6755ft 0kts
11-Feb-18 08:17 34.262347 -116.853444 183 6755ft 0kts
11-Feb-18 08:18 34.262343 -116.853444 183 6755ft 0kts

Navigation Log

Ident Type
Flight plan parsing failed, navigation log unavailable